sensor_id;sensor_type;location;lat;lon;timestamp;temperature;humidity
30572;DHT22;17348;50.948;10.696;2022-08-19T00:02:35;20.60;99.90
30572;DHT22;17348;50.948;10.696;2022-08-19T00:05:39;20.60;99.90
30572;DHT22;17348;50.948;10.696;2022-08-19T00:08:43;20.60;99.90
30572;DHT22;17348;50.948;10.696;2022-08-19T00:11:46;20.60;99.90
30572;DHT22;17348;50.948;10.696;2022-08-19T00:14:48;20.60;99.90
30572;DHT22;17348;50.948;10.696;2022-08-19T00:17:50;20.70;99.90
30572;DHT22;17348;50.948;10.696;2022-08-19T00:20:54;20.70;99.90
30572;DHT22;17348;50.948;10.696;2022-08-19T00:23:57;20.70;99.90
30572;DHT22;17348;50.948;10.696;2022-08-19T00:26:59;20.70;99.90
30572;DHT22;17348;50.948;10.696;2022-08-19T00:30:04;20.70;99.90
30572;DHT22;17348;50.948;10.696;2022-08-19T00:33:06;20.60;99.90
30572;DHT22;17348;50.948;10.696;2022-08-19T00:36:10;20.60;99.90
30572;DHT22;17348;50.948;10.696;2022-08-19T00:39:15;20.60;99.90
30572;DHT22;17348;50.948;10.696;2022-08-19T00:42:19;20.60;99.90
30572;DHT22;17348;50.948;10.696;2022-08-19T00:45:23;20.60;99.90
30572;DHT22;17348;50.948;10.696;2022-08-19T00:48:28;20.70;99.90
30572;DHT22;17348;50.948;10.696;2022-08-19T00:51:31;20.70;99.90
30572;DHT22;17348;50.948;10.696;2022-08-19T00:54:36;20.70;99.90
30572;DHT22;17348;50.948;10.696;2022-08-19T00:57:42;20.70;99.90
30572;DHT22;17348;50.948;10.696;2022-08-19T01:00:47;20.70;99.90
30572;DHT22;17348;50.948;10.696;2022-08-19T01:03:49;20.70;99.90
30572;DHT22;17348;50.948;10.696;2022-08-19T01:06:53;20.70;99.90
30572;DHT22;17348;50.948;10.696;2022-08-19T01:09:57;20.60;99.90
30572;DHT22;17348;50.948;10.696;2022-08-19T01:13:01;20.70;99.90
30572;DHT22;17348;50.948;10.696;2022-08-19T01:16:06;20.70;99.90
30572;DHT22;17348;50.948;10.696;2022-08-19T01:19:17;20.70;99.90
30572;DHT22;17348;50.948;10.696;2022-08-19T01:22:27;20.70;99.90
30572;DHT22;17348;50.948;10.696;2022-08-19T01:25:38;20.70;99.90
30572;DHT22;17348;50.948;10.696;2022-08-19T01:28:42;20.70;99.90
30572;DHT22;17348;50.948;10.696;2022-08-19T01:31:45;20.70;99.90
30572;DHT22;17348;50.948;10.696;2022-08-19T01:34:47;20.70;99.90
30572;DHT22;17348;50.948;10.696;2022-08-19T01:37:53;20.70;99.90
30572;DHT22;17348;50.948;10.696;2022-08-19T01:40:56;20.70;99.90
30572;DHT22;17348;50.948;10.696;2022-08-19T01:43:59;20.70;99.90
30572;DHT22;17348;50.948;10.696;2022-08-19T01:47:04;20.70;99.90
30572;DHT22;17348;50.948;10.696;2022-08-19T01:50:08;20.70;99.90
30572;DHT22;17348;50.948;10.696;2022-08-19T01:53:12;20.70;99.90
30572;DHT22;17348;50.948;10.696;2022-08-19T01:56:14;20.70;99.90
30572;DHT22;17348;50.948;10.696;2022-08-19T01:59:19;20.60;99.90
30572;DHT22;17348;50.948;10.696;2022-08-19T02:02:22;20.60;99.90
30572;DHT22;17348;50.948;10.696;2022-08-19T02:05:24;20.50;99.90
30572;DHT22;17348;50.948;10.696;2022-08-19T02:08:29;20.50;99.90
30572;DHT22;17348;50.948;10.696;2022-08-19T02:11:33;20.50;99.90
30572;DHT22;17348;50.948;10.696;2022-08-19T02:14:36;20.50;99.90
30572;DHT22;17348;50.948;10.696;2022-08-19T02:17:39;20.40;99.90
30572;DHT22;17348;50.948;10.696;2022-08-19T02:20:42;20.40;99.90
30572;DHT22;17348;50.948;10.696;2022-08-19T02:23:46;20.30;99.90
30572;DHT22;17348;50.948;10.696;2022-08-19T02:26:49;20.30;99.90
30572;DHT22;17348;50.948;10.696;2022-08-19T02:29:52;20.30;99.90
30572;DHT22;17348;50.948;10.696;2022-08-19T02:32:54;20.20;99.90
30572;DHT22;17348;50.948;10.696;2022-08-19T02:35:56;20.20;99.90
30572;DHT22;17348;50.948;10.696;2022-08-19T02:39:00;20.20;99.90
30572;DHT22;17348;50.948;10.696;2022-08-19T02:42:03;20.20;99.90
30572;DHT22;17348;50.948;10.696;2022-08-19T02:45:05;20.10;99.90
30572;DHT22;17348;50.948;10.696;2022-08-19T02:48:08;20.10;99.90
30572;DHT22;17348;50.948;10.696;2022-08-19T02:51:16;20.10;99.90
30572;DHT22;17348;50.948;10.696;2022-08-19T02:54:20;20.10;99.90
30572;DHT22;17348;50.948;10.696;2022-08-19T02:57:22;20.00;99.90
30572;DHT22;17348;50.948;10.696;2022-08-19T03:00:25;19.90;99.90
30572;DHT22;17348;50.948;10.696;2022-08-19T03:03:28;19.90;99.90
30572;DHT22;17348;50.948;10.696;2022-08-19T03:06:31;19.80;99.90
30572;DHT22;17348;50.948;10.696;2022-08-19T03:09:37;19.80;99.90
30572;DHT22;17348;50.948;10.696;2022-08-19T03:12:40;19.70;99.90
30572;DHT22;17348;50.948;10.696;2022-08-19T03:15:44;19.70;99.90
30572;DHT22;17348;50.948;10.696;2022-08-19T03:18:47;19.60;99.90
30572;DHT22;17348;50.948;10.696;2022-08-19T03:21:50;19.60;99.90
30572;DHT22;17348;50.948;10.696;2022-08-19T03:24:54;19.60;99.90
30572;DHT22;17348;50.948;10.696;2022-08-19T03:27:56;19.60;99.90
30572;DHT22;17348;50.948;10.696;2022-08-19T03:31:00;19.60;99.90
30572;DHT22;17348;50.948;10.696;2022-08-19T03:34:03;19.60;99.90
30572;DHT22;17348;50.948;10.696;2022-08-19T03:37:08;19.60;99.90
30572;DHT22;17348;50.948;10.696;2022-08-19T03:40:14;19.60;99.90
30572;DHT22;17348;50.948;10.696;2022-08-19T03:43:16;19.60;99.90
30572;DHT22;17348;50.948;10.696;2022-08-19T03:46:22;19.60;99.90
30572;DHT22;17348;50.948;10.696;2022-08-19T03:49:26;19.50;99.90
30572;DHT22;17348;50.948;10.696;2022-08-19T03:52:29;19.50;99.90
30572;DHT22;17348;50.948;10.696;2022-08-19T03:55:33;19.50;99.90
30572;DHT22;17348;50.948;10.696;2022-08-19T03:58:36;19.50;99.90
30572;DHT22;17348;50.948;10.696;2022-08-19T04:01:40;19.50;99.90
30572;DHT22;17348;50.948;10.696;2022-08-19T04:04:43;19.40;99.90
30572;DHT22;17348;50.948;10.696;2022-08-19T04:07:45;19.40;99.90
30572;DHT22;17348;50.948;10.696;2022-08-19T04:10:49;19.40;99.90
30572;DHT22;17348;50.948;10.696;2022-08-19T04:13:53;19.40;99.90
30572;DHT22;17348;50.948;10.696;2022-08-19T04:16:56;19.50;99.90
30572;DHT22;17348;50.948;10.696;2022-08-19T04:19:59;19.50;99.90
30572;DHT22;17348;50.948;10.696;2022-08-19T04:23:02;19.50;99.90
30572;DHT22;17348;50.948;10.696;2022-08-19T04:26:05;19.60;99.90
30572;DHT22;17348;50.948;10.696;2022-08-19T04:29:10;19.60;99.90
30572;DHT22;17348;50.948;10.696;2022-08-19T04:32:13;19.60;99.90
30572;DHT22;17348;50.948;10.696;2022-08-19T04:35:16;19.60;99.90
30572;DHT22;17348;50.948;10.696;2022-08-19T04:38:20;19.60;99.90
30572;DHT22;17348;50.948;10.696;2022-08-19T04:41:25;19.60;99.90
30572;DHT22;17348;50.948;10.696;2022-08-19T04:44:45;19.70;99.90
30572;DHT22;17348;50.948;10.696;2022-08-19T04:47:47;19.70;99.90
30572;DHT22;17348;50.948;10.696;2022-08-19T04:50:49;19.70;99.90
30572;DHT22;17348;50.948;10.696;2022-08-19T04:53:52;19.70;99.90
30572;DHT22;17348;50.948;10.696;2022-08-19T04:56:56;19.70;99.90
30572;DHT22;17348;50.948;10.696;2022-08-19T04:59:58;19.70;99.90
30572;DHT22;17348;50.948;10.696;2022-08-19T05:03:01;19.70;99.90
30572;DHT22;17348;50.948;10.696;2022-08-19T05:06:05;19.70;99.90
30572;DHT22;17348;50.948;10.696;2022-08-19T05:09:08;19.70;99.90
30572;DHT22;17348;50.948;10.696;2022-08-19T05:12:12;19.70;99.90
30572;DHT22;17348;50.948;10.696;2022-08-19T05:15:14;19.70;99.90
30572;DHT22;17348;50.948;10.696;2022-08-19T05:18:16;19.70;99.90
30572;DHT22;17348;50.948;10.696;2022-08-19T05:21:37;19.80;99.90
30572;DHT22;17348;50.948;10.696;2022-08-19T05:25:00;19.80;99.90
30572;DHT22;17348;50.948;10.696;2022-08-19T05:28:04;19.80;99.90
30572;DHT22;17348;50.948;10.696;2022-08-19T05:31:06;19.70;99.90
30572;DHT22;17348;50.948;10.696;2022-08-19T05:34:09;19.80;99.90
30572;DHT22;17348;50.948;10.696;2022-08-19T05:37:12;19.80;99.90
30572;DHT22;17348;50.948;10.696;2022-08-19T05:40:14;19.80;99.90
30572;DHT22;17348;50.948;10.696;2022-08-19T05:43:18;19.80;99.90
30572;DHT22;17348;50.948;10.696;2022-08-19T05:46:20;19.80;99.90
30572;DHT22;17348;50.948;10.696;2022-08-19T05:49:24;19.70;99.90
30572;DHT22;17348;50.948;10.696;2022-08-19T05:52:27;19.70;99.90
30572;DHT22;17348;50.948;10.696;2022-08-19T05:55:30;19.80;99.90
30572;DHT22;17348;50.948;10.696;2022-08-19T05:58:33;19.80;99.90
30572;DHT22;17348;50.948;10.696;2022-08-19T06:01:36;19.80;99.90
30572;DHT22;17348;50.948;10.696;2022-08-19T06:04:39;19.80;99.90
30572;DHT22;17348;50.948;10.696;2022-08-19T06:07:43;19.80;99.90
30572;DHT22;17348;50.948;10.696;2022-08-19T06:10:46;19.80;99.90
30572;DHT22;17348;50.948;10.696;2022-08-19T06:13:52;19.80;99.90
30572;DHT22;17348;50.948;10.696;2022-08-19T06:16:55;19.80;99.90
30572;DHT22;17348;50.948;10.696;2022-08-19T06:19:58;19.80;99.90
30572;DHT22;17348;50.948;10.696;2022-08-19T06:23:00;19.80;99.90
30572;DHT22;17348;50.948;10.696;2022-08-19T06:26:02;19.80;99.90
30572;DHT22;17348;50.948;10.696;2022-08-19T06:29:09;19.80;99.90
30572;DHT22;17348;50.948;10.696;2022-08-19T06:32:12;19.80;99.90
30572;DHT22;17348;50.948;10.696;2022-08-19T06:35:14;19.80;99.90
30572;DHT22;17348;50.948;10.696;2022-08-19T06:38:17;19.80;99.90
30572;DHT22;17348;50.948;10.696;2022-08-19T06:41:23;19.80;99.90
30572;DHT22;17348;50.948;10.696;2022-08-19T06:44:29;19.80;99.90
30572;DHT22;17348;50.948;10.696;2022-08-19T06:47:36;19.90;99.90
30572;DHT22;17348;50.948;10.696;2022-08-19T06:50:39;19.80;99.90
30572;DHT22;17348;50.948;10.696;2022-08-19T06:53:50;19.80;99.90
30572;DHT22;17348;50.948;10.696;2022-08-19T06:56:52;19.90;99.90
30572;DHT22;17348;50.948;10.696;2022-08-19T06:59:58;19.90;99.90
30572;DHT22;17348;50.948;10.696;2022-08-19T07:03:00;20.00;99.90
30572;DHT22;17348;50.948;10.696;2022-08-19T07:06:03;20.00;99.90
30572;DHT22;17348;50.948;10.696;2022-08-19T07:09:08;20.00;99.90
30572;DHT22;17348;50.948;10.696;2022-08-19T07:12:13;20.00;99.90
30572;DHT22;17348;50.948;10.696;2022-08-19T07:15:17;20.10;99.90
30572;DHT22;17348;50.948;10.696;2022-08-19T07:18:22;20.10;99.90
30572;DHT22;17348;50.948;10.696;2022-08-19T07:21:27;20.10;99.90
30572;DHT22;17348;50.948;10.696;2022-08-19T07:24:29;20.10;99.90
30572;DHT22;17348;50.948;10.696;2022-08-19T07:27:32;20.20;99.90
30572;DHT22;17348;50.948;10.696;2022-08-19T07:30:37;20.20;99.90
30572;DHT22;17348;50.948;10.696;2022-08-19T07:33:41;20.20;99.90
30572;DHT22;17348;50.948;10.696;2022-08-19T07:36:44;20.30;99.90
30572;DHT22;17348;50.948;10.696;2022-08-19T07:39:47;20.30;99.90
30572;DHT22;17348;50.948;10.696;2022-08-19T07:42:49;20.30;99.90
30572;DHT22;17348;50.948;10.696;2022-08-19T07:45:54;20.30;99.90
30572;DHT22;17348;50.948;10.696;2022-08-19T07:48:58;20.30;99.90
30572;DHT22;17348;50.948;10.696;2022-08-19T07:52:03;20.40;99.90
30572;DHT22;17348;50.948;10.696;2022-08-19T07:55:09;20.40;99.90
30572;DHT22;17348;50.948;10.696;2022-08-19T07:58:14;20.50;99.90
30572;DHT22;17348;50.948;10.696;2022-08-19T08:01:21;20.50;99.90
30572;DHT22;17348;50.948;10.696;2022-08-19T08:04:25;20.50;99.90
30572;DHT22;17348;50.948;10.696;2022-08-19T08:07:46;20.50;99.90
30572;DHT22;17348;50.948;10.696;2022-08-19T08:11:06;20.50;99.90
30572;DHT22;17348;50.948;10.696;2022-08-19T08:14:08;20.50;99.90
30572;DHT22;17348;50.948;10.696;2022-08-19T08:17:14;20.50;99.90
30572;DHT22;17348;50.948;10.696;2022-08-19T08:20:17;20.50;99.90
30572;DHT22;17348;50.948;10.696;2022-08-19T08:23:20;20.50;99.90
30572;DHT22;17348;50.948;10.696;2022-08-19T08:26:26;20.50;99.90
30572;DHT22;17348;50.948;10.696;2022-08-19T08:29:30;20.50;99.90
30572;DHT22;17348;50.948;10.696;2022-08-19T08:32:34;20.50;99.90
30572;DHT22;17348;50.948;10.696;2022-08-19T08:35:36;20.50;99.90
30572;DHT22;17348;50.948;10.696;2022-08-19T08:38:39;20.50;99.90
30572;DHT22;17348;50.948;10.696;2022-08-19T08:41:46;20.60;99.90
30572;DHT22;17348;50.948;10.696;2022-08-19T08:44:56;20.60;99.90
30572;DHT22;17348;50.948;10.696;2022-08-19T08:51:25;20.70;99.90
30572;DHT22;17348;50.948;10.696;2022-08-19T08:54:35;20.80;99.90
30572;DHT22;17348;50.948;10.696;2022-08-19T08:57:43;20.90;99.90
30572;DHT22;17348;50.948;10.696;2022-08-19T09:00:48;20.90;99.90
30572;DHT22;17348;50.948;10.696;2022-08-19T09:03:52;21.00;99.90
30572;DHT22;17348;50.948;10.696;2022-08-19T09:06:58;21.00;99.90
30572;DHT22;17348;50.948;10.696;2022-08-19T09:10:13;21.00;99.90
30572;DHT22;17348;50.948;10.696;2022-08-19T09:13:25;21.10;99.90
30572;DHT22;17348;50.948;10.696;2022-08-19T09:16:30;21.20;99.90
30572;DHT22;17348;50.948;10.696;2022-08-19T09:19:34;21.20;99.90
30572;DHT22;17348;50.948;10.696;2022-08-19T09:22:38;21.20;99.90
30572;DHT22;17348;50.948;10.696;2022-08-19T09:25:41;21.20;99.90
30572;DHT22;17348;50.948;10.696;2022-08-19T09:28:45;21.20;99.90
30572;DHT22;17348;50.948;10.696;2022-08-19T09:31:48;21.30;99.90
30572;DHT22;17348;50.948;10.696;2022-08-19T09:34:52;21.40;99.90
30572;DHT22;17348;50.948;10.696;2022-08-19T09:37:56;21.50;99.90
30572;DHT22;17348;50.948;10.696;2022-08-19T09:41:03;21.70;99.90
30572;DHT22;17348;50.948;10.696;2022-08-19T09:44:05;21.80;99.90
30572;DHT22;17348;50.948;10.696;2022-08-19T09:47:09;22.00;99.90
30572;DHT22;17348;50.948;10.696;2022-08-19T09:50:13;22.10;99.90
30572;DHT22;17348;50.948;10.696;2022-08-19T09:53:19;22.10;99.90
30572;DHT22;17348;50.948;10.696;2022-08-19T09:56:24;22.20;99.90
30572;DHT22;17348;50.948;10.696;2022-08-19T09:59:27;22.30;99.90
30572;DHT22;17348;50.948;10.696;2022-08-19T10:02:29;22.30;99.90
30572;DHT22;17348;50.948;10.696;2022-08-19T10:05:33;22.40;99.90
30572;DHT22;17348;50.948;10.696;2022-08-19T10:08:51;22.30;99.90
30572;DHT22;17348;50.948;10.696;2022-08-19T10:11:54;22.40;99.90
30572;DHT22;17348;50.948;10.696;2022-08-19T10:14:56;22.40;99.90
30572;DHT22;17348;50.948;10.696;2022-08-19T10:17:59;22.50;99.90
30572;DHT22;17348;50.948;10.696;2022-08-19T10:21:09;22.60;99.90
30572;DHT22;17348;50.948;10.696;2022-08-19T10:24:11;22.60;99.90
30572;DHT22;17348;50.948;10.696;2022-08-19T10:27:13;22.50;99.90
30572;DHT22;17348;50.948;10.696;2022-08-19T10:30:16;22.60;99.90
30572;DHT22;17348;50.948;10.696;2022-08-19T10:33:18;22.50;99.90
30572;DHT22;17348;50.948;10.696;2022-08-19T10:36:23;22.60;99.90
30572;DHT22;17348;50.948;10.696;2022-08-19T10:39:26;22.60;99.90
30572;DHT22;17348;50.948;10.696;2022-08-19T10:42:31;22.60;99.90
30572;DHT22;17348;50.948;10.696;2022-08-19T10:45:33;22.60;99.90
30572;DHT22;17348;50.948;10.696;2022-08-19T10:48:36;22.80;99.90
30572;DHT22;17348;50.948;10.696;2022-08-19T10:51:40;22.90;99.90
30572;DHT22;17348;50.948;10.696;2022-08-19T10:55:00;22.80;99.90
30572;DHT22;17348;50.948;10.696;2022-08-19T10:58:21;22.70;99.90
30572;DHT22;17348;50.948;10.696;2022-08-19T11:01:27;22.80;99.90
30572;DHT22;17348;50.948;10.696;2022-08-19T11:04:30;22.70;99.90
30572;DHT22;17348;50.948;10.696;2022-08-19T11:07:35;22.60;99.90
30572;DHT22;17348;50.948;10.696;2022-08-19T11:10:41;22.60;99.90
30572;DHT22;17348;50.948;10.696;2022-08-19T11:13:45;22.60;99.90
30572;DHT22;17348;50.948;10.696;2022-08-19T11:16:48;22.70;99.90
30572;DHT22;17348;50.948;10.696;2022-08-19T11:19:50;22.80;99.90
30572;DHT22;17348;50.948;10.696;2022-08-19T11:22:54;22.80;99.90
30572;DHT22;17348;50.948;10.696;2022-08-19T11:25:58;23.00;99.90
30572;DHT22;17348;50.948;10.696;2022-08-19T11:29:03;23.10;99.90
30572;DHT22;17348;50.948;10.696;2022-08-19T11:32:09;23.20;99.90
30572;DHT22;17348;50.948;10.696;2022-08-19T11:35:15;23.20;99.90
30572;DHT22;17348;50.948;10.696;2022-08-19T11:38:21;23.30;99.90
30572;DHT22;17348;50.948;10.696;2022-08-19T11:41:24;23.30;99.90
30572;DHT22;17348;50.948;10.696;2022-08-19T11:44:27;23.30;99.90
30572;DHT22;17348;50.948;10.696;2022-08-19T11:47:31;23.40;99.90
30572;DHT22;17348;50.948;10.696;2022-08-19T11:50:33;23.50;99.90
30572;DHT22;17348;50.948;10.696;2022-08-19T11:53:46;23.40;99.90
30572;DHT22;17348;50.948;10.696;2022-08-19T11:56:48;23.40;99.90
30572;DHT22;17348;50.948;10.696;2022-08-19T11:59:51;23.40;99.90
30572;DHT22;17348;50.948;10.696;2022-08-19T12:02:56;23.40;99.90
30572;DHT22;17348;50.948;10.696;2022-08-19T12:06:02;23.40;99.90
30572;DHT22;17348;50.948;10.696;2022-08-19T12:09:07;23.40;99.90
30572;DHT22;17348;50.948;10.696;2022-08-19T12:12:11;23.50;99.90
30572;DHT22;17348;50.948;10.696;2022-08-19T12:15:16;23.50;99.90
30572;DHT22;17348;50.948;10.696;2022-08-19T12:18:18;23.50;99.90
30572;DHT22;17348;50.948;10.696;2022-08-19T12:21:23;23.50;99.90
30572;DHT22;17348;50.948;10.696;2022-08-19T12:24:32;23.60;99.90
30572;DHT22;17348;50.948;10.696;2022-08-19T12:27:34;23.70;99.90
30572;DHT22;17348;50.948;10.696;2022-08-19T12:30:37;23.60;99.90
30572;DHT22;17348;50.948;10.696;2022-08-19T12:33:40;23.60;99.90
30572;DHT22;17348;50.948;10.696;2022-08-19T12:36:43;23.70;99.90
30572;DHT22;17348;50.948;10.696;2022-08-19T12:39:46;23.80;99.90
30572;DHT22;17348;50.948;10.696;2022-08-19T12:42:49;23.90;99.90
30572;DHT22;17348;50.948;10.696;2022-08-19T12:45:55;23.90;99.90
30572;DHT22;17348;50.948;10.696;2022-08-19T12:48:57;24.10;99.90
30572;DHT22;17348;50.948;10.696;2022-08-19T12:51:59;24.30;99.90
30572;DHT22;17348;50.948;10.696;2022-08-19T12:55:06;24.30;99.90
30572;DHT22;17348;50.948;10.696;2022-08-19T12:58:08;24.50;99.90
30572;DHT22;17348;50.948;10.696;2022-08-19T13:01:12;24.70;99.90
30572;DHT22;17348;50.948;10.696;2022-08-19T13:04:15;24.90;99.90
30572;DHT22;17348;50.948;10.696;2022-08-19T13:07:17;25.00;99.90
30572;DHT22;17348;50.948;10.696;2022-08-19T13:10:22;25.00;99.90
30572;DHT22;17348;50.948;10.696;2022-08-19T13:13:25;24.90;99.90
30572;DHT22;17348;50.948;10.696;2022-08-19T13:16:28;24.90;99.90
30572;DHT22;17348;50.948;10.696;2022-08-19T13:19:30;24.90;99.90
30572;DHT22;17348;50.948;10.696;2022-08-19T13:22:34;24.90;99.90
30572;DHT22;17348;50.948;10.696;2022-08-19T13:25:38;24.90;99.90
30572;DHT22;17348;50.948;10.696;2022-08-19T13:28:42;25.00;99.90
30572;DHT22;17348;50.948;10.696;2022-08-19T13:32:02;25.20;99.90
30572;DHT22;17348;50.948;10.696;2022-08-19T13:35:22;25.50;99.90
30572;DHT22;17348;50.948;10.696;2022-08-19T13:38:24;25.70;99.90
30572;DHT22;17348;50.948;10.696;2022-08-19T13:41:28;25.80;99.90
30572;DHT22;17348;50.948;10.696;2022-08-19T13:44:30;25.90;99.90
30572;DHT22;17348;50.948;10.696;2022-08-19T13:47:33;25.90;99.90
30572;DHT22;17348;50.948;10.696;2022-08-19T13:50:39;25.90;99.90
30572;DHT22;17348;50.948;10.696;2022-08-19T13:53:43;25.90;99.90
30572;DHT22;17348;50.948;10.696;2022-08-19T13:56:47;26.00;99.90
30572;DHT22;17348;50.948;10.696;2022-08-19T13:59:49;26.10;99.90
30572;DHT22;17348;50.948;10.696;2022-08-19T14:02:53;26.20;99.90
30572;DHT22;17348;50.948;10.696;2022-08-19T14:05:56;26.30;99.90
30572;DHT22;17348;50.948;10.696;2022-08-19T14:08:58;26.20;99.90
30572;DHT22;17348;50.948;10.696;2022-08-19T14:12:05;26.20;99.90
30572;DHT22;17348;50.948;10.696;2022-08-19T14:15:09;26.10;99.90
30572;DHT22;17348;50.948;10.696;2022-08-19T14:18:14;26.20;99.90
30572;DHT22;17348;50.948;10.696;2022-08-19T14:21:21;26.30;99.90
30572;DHT22;17348;50.948;10.696;2022-08-19T14:24:24;26.30;99.90
30572;DHT22;17348;50.948;10.696;2022-08-19T14:27:28;26.30;99.80
30572;DHT22;17348;50.948;10.696;2022-08-19T14:30:32;26.20;99.90
30572;DHT22;17348;50.948;10.696;2022-08-19T14:33:35;26.30;99.60
30572;DHT22;17348;50.948;10.696;2022-08-19T14:36:38;26.30;99.20
30572;DHT22;17348;50.948;10.696;2022-08-19T14:39:40;26.30;99.90
30572;DHT22;17348;50.948;10.696;2022-08-19T14:42:44;26.50;99.90
30572;DHT22;17348;50.948;10.696;2022-08-19T14:45:47;26.60;99.70
30572;DHT22;17348;50.948;10.696;2022-08-19T14:48:50;26.80;99.70
30572;DHT22;17348;50.948;10.696;2022-08-19T14:51:52;26.90;98.90
30572;DHT22;17348;50.948;10.696;2022-08-19T14:54:54;27.10;98.60
30572;DHT22;17348;50.948;10.696;2022-08-19T14:57:58;27.30;98.30
30572;DHT22;17348;50.948;10.696;2022-08-19T15:01:01;27.40;98.00
30572;DHT22;17348;50.948;10.696;2022-08-19T15:04:04;27.50;97.30
30572;DHT22;17348;50.948;10.696;2022-08-19T15:07:06;27.50;97.00
30572;DHT22;17348;50.948;10.696;2022-08-19T15:10:10;27.50;97.00
30572;DHT22;17348;50.948;10.696;2022-08-19T15:13:16;27.60;96.60
30572;DHT22;17348;50.948;10.696;2022-08-19T15:16:18;27.70;96.70
30572;DHT22;17348;50.948;10.696;2022-08-19T15:19:21;28.00;97.10
30572;DHT22;17348;50.948;10.696;2022-08-19T15:22:24;28.00;96.00
30572;DHT22;17348;50.948;10.696;2022-08-19T15:25:27;27.90;95.30
30572;DHT22;17348;50.948;10.696;2022-08-19T15:28:31;27.70;95.40
30572;DHT22;17348;50.948;10.696;2022-08-19T15:31:33;27.60;95.80
30572;DHT22;17348;50.948;10.696;2022-08-19T15:34:36;27.50;94.80
30572;DHT22;17348;50.948;10.696;2022-08-19T15:37:38;27.40;94.60
30572;DHT22;17348;50.948;10.696;2022-08-19T15:40:41;27.30;94.50
30572;DHT22;17348;50.948;10.696;2022-08-19T15:43:45;27.30;94.70
30572;DHT22;17348;50.948;10.696;2022-08-19T15:46:48;27.20;94.60
30572;DHT22;17348;50.948;10.696;2022-08-19T15:49:50;27.10;94.60
30572;DHT22;17348;50.948;10.696;2022-08-19T15:52:55;27.10;94.30
30572;DHT22;17348;50.948;10.696;2022-08-19T15:55:58;27.00;94.10
30572;DHT22;17348;50.948;10.696;2022-08-19T15:59:02;27.00;94.20
30572;DHT22;17348;50.948;10.696;2022-08-19T16:02:24;27.10;94.60
30572;DHT22;17348;50.948;10.696;2022-08-19T16:05:35;27.10;94.10
30572;DHT22;17348;50.948;10.696;2022-08-19T16:08:56;27.10;94.00
30572;DHT22;17348;50.948;10.696;2022-08-19T16:12:00;27.00;93.40
30572;DHT22;17348;50.948;10.696;2022-08-19T16:15:05;27.00;93.50
30572;DHT22;17348;50.948;10.696;2022-08-19T16:18:07;27.00;93.70
30572;DHT22;17348;50.948;10.696;2022-08-19T16:21:09;27.00;94.00
30572;DHT22;17348;50.948;10.696;2022-08-19T16:24:16;26.90;93.80
30572;DHT22;17348;50.948;10.696;2022-08-19T16:27:18;26.70;93.70
30572;DHT22;17348;50.948;10.696;2022-08-19T16:30:23;26.70;93.70
30572;DHT22;17348;50.948;10.696;2022-08-19T16:33:28;26.50;93.60
30572;DHT22;17348;50.948;10.696;2022-08-19T16:36:32;26.40;94.00
30572;DHT22;17348;50.948;10.696;2022-08-19T16:39:35;26.30;94.20
30572;DHT22;17348;50.948;10.696;2022-08-19T16:42:37;26.30;94.20
30572;DHT22;17348;50.948;10.696;2022-08-19T16:45:41;26.20;94.30
30572;DHT22;17348;50.948;10.696;2022-08-19T16:48:43;26.30;94.20
30572;DHT22;17348;50.948;10.696;2022-08-19T16:51:46;26.40;94.70
30572;DHT22;17348;50.948;10.696;2022-08-19T16:54:48;26.40;93.80
30572;DHT22;17348;50.948;10.696;2022-08-19T16:57:51;26.40;94.10
30572;DHT22;17348;50.948;10.696;2022-08-19T17:00:56;26.50;93.60
30572;DHT22;17348;50.948;10.696;2022-08-19T17:03:58;26.50;93.80
30572;DHT22;17348;50.948;10.696;2022-08-19T17:07:01;26.60;93.70
30572;DHT22;17348;50.948;10.696;2022-08-19T17:10:05;26.60;93.30
30572;DHT22;17348;50.948;10.696;2022-08-19T17:13:08;26.50;93.50
30572;DHT22;17348;50.948;10.696;2022-08-19T17:16:12;26.40;93.30
30572;DHT22;17348;50.948;10.696;2022-08-19T17:19:14;26.40;93.40
30572;DHT22;17348;50.948;10.696;2022-08-19T17:22:17;26.30;93.50
30572;DHT22;17348;50.948;10.696;2022-08-19T17:25:19;26.30;93.60
30572;DHT22;17348;50.948;10.696;2022-08-19T17:28:23;26.30;93.70
30572;DHT22;17348;50.948;10.696;2022-08-19T17:31:29;26.30;93.60
30572;DHT22;17348;50.948;10.696;2022-08-19T17:34:32;26.20;93.50
30572;DHT22;17348;50.948;10.696;2022-08-19T17:37:37;26.10;94.00
30572;DHT22;17348;50.948;10.696;2022-08-19T17:40:40;26.00;94.50
30572;DHT22;17348;50.948;10.696;2022-08-19T17:43:42;25.90;94.80
30572;DHT22;17348;50.948;10.696;2022-08-19T17:46:47;25.80;94.90
30572;DHT22;17348;50.948;10.696;2022-08-19T17:49:53;25.70;95.20
30572;DHT22;17348;50.948;10.696;2022-08-19T17:52:56;25.50;95.40
30572;DHT22;17348;50.948;10.696;2022-08-19T17:56:00;25.40;95.70
30572;DHT22;17348;50.948;10.696;2022-08-19T17:59:03;25.30;96.00
30572;DHT22;17348;50.948;10.696;2022-08-19T18:02:08;25.20;96.30
30572;DHT22;17348;50.948;10.696;2022-08-19T18:05:11;25.10;96.30
30572;DHT22;17348;50.948;10.696;2022-08-19T18:08:14;25.10;97.00
30572;DHT22;17348;50.948;10.696;2022-08-19T18:11:17;24.90;96.90
30572;DHT22;17348;50.948;10.696;2022-08-19T18:14:19;24.80;97.10
30572;DHT22;17348;50.948;10.696;2022-08-19T18:17:29;24.70;97.10
30572;DHT22;17348;50.948;10.696;2022-08-19T18:20:32;24.60;97.10
30572;DHT22;17348;50.948;10.696;2022-08-19T18:23:34;24.60;97.40
30572;DHT22;17348;50.948;10.696;2022-08-19T18:26:37;24.50;97.40
30572;DHT22;17348;50.948;10.696;2022-08-19T18:29:39;24.50;97.60
30572;DHT22;17348;50.948;10.696;2022-08-19T18:32:46;24.40;97.80
30572;DHT22;17348;50.948;10.696;2022-08-19T18:35:50;24.40;97.70
30572;DHT22;17348;50.948;10.696;2022-08-19T18:38:53;24.30;97.90
30572;DHT22;17348;50.948;10.696;2022-08-19T18:42:13;24.30;98.30
30572;DHT22;17348;50.948;10.696;2022-08-19T18:45:33;24.20;98.20
30572;DHT22;17348;50.948;10.696;2022-08-19T18:49:06;24.10;98.30
30572;DHT22;17348;50.948;10.696;2022-08-19T18:52:10;24.00;98.70
30572;DHT22;17348;50.948;10.696;2022-08-19T18:55:12;23.90;98.80
30572;DHT22;17348;50.948;10.696;2022-08-19T18:58:17;23.90;98.90
30572;DHT22;17348;50.948;10.696;2022-08-19T19:01:26;23.80;98.90
30572;DHT22;17348;50.948;10.696;2022-08-19T19:04:31;23.70;99.10
30572;DHT22;17348;50.948;10.696;2022-08-19T19:07:35;23.70;99.40
30572;DHT22;17348;50.948;10.696;2022-08-19T19:10:37;23.60;99.60